sensor_id;sensor_type;location;lat;lon;timestamp;P1;durP1;ratioP1;P2;durP2;ratioP2
18322;SDS011;9287;49.456;11.064;2023-05-23T00:00:11;9.60;;;8.55;;
18322;SDS011;9287;49.456;11.064;2023-05-23T00:02:40;10.20;;;8.90;;
18322;SDS011;9287;49.456;11.064;2023-05-23T00:05:09;9.40;;;8.60;;
18322;SDS011;9287;49.456;11.064;2023-05-23T00:07:36;9.82;;;8.88;;
18322;SDS011;9287;49.456;11.064;2023-05-23T00:10:06;9.82;;;8.90;;
18322;SDS011;9287;49.456;11.064;2023-05-23T00:12:34;9.38;;;8.68;;
18322;SDS011;9287;49.456;11.064;2023-05-23T00:15:06;9.70;;;8.68;;
18322;SDS011;9287;49.456;11.064;2023-05-23T00:17:35;9.43;;;8.50;;
18322;SDS011;9287;49.456;11.064;2023-05-23T00:20:05;8.35;;;7.65;;
18322;SDS011;9287;49.456;11.064;2023-05-23T00:22:35;8.82;;;7.97;;
18322;SDS011;9287;49.456;11.064;2023-05-23T00:25:09;8.85;;;7.95;;
18322;SDS011;9287;49.456;11.064;2023-05-23T00:27:37;8.77;;;7.97;;
18322;SDS011;9287;49.456;11.064;2023-05-23T00:30:06;8.70;;;7.85;;
18322;SDS011;9287;49.456;11.064;2023-05-23T00:32:34;8.85;;;8.10;;
18322;SDS011;9287;49.456;11.064;2023-05-23T00:35:04;8.65;;;7.90;;
18322;SDS011;9287;49.456;11.064;2023-05-23T00:37:33;9.63;;;8.13;;
18322;SDS011;9287;49.456;11.064;2023-05-23T00:40:00;9.73;;;7.70;;
18322;SDS011;9287;49.456;11.064;2023-05-23T00:42:30;8.45;;;7.65;;
18322;SDS011;9287;49.456;11.064;2023-05-23T00:44:58;8.73;;;7.93;;
18322;SDS011;9287;49.456;11.064;2023-05-23T00:47:27;8.77;;;7.97;;
18322;SDS011;9287;49.456;11.064;2023-05-23T00:49:56;9.70;;;8.70;;
18322;SDS011;9287;49.456;11.064;2023-05-23T00:52:23;9.27;;;8.30;;
18322;SDS011;9287;49.456;11.064;2023-05-23T00:54:53;8.15;;;7.45;;
18322;SDS011;9287;49.456;11.064;2023-05-23T00:57:22;8.70;;;8.00;;
18322;SDS011;9287;49.456;11.064;2023-05-23T00:59:51;8.60;;;7.85;;
18322;SDS011;9287;49.456;11.064;2023-05-23T01:02:19;7.68;;;7.03;;
18322;SDS011;9287;49.456;11.064;2023-05-23T01:04:49;8.60;;;7.80;;
18322;SDS011;9287;49.456;11.064;2023-05-23T01:07:19;9.43;;;8.52;;
18322;SDS011;9287;49.456;11.064;2023-05-23T01:09:47;8.45;;;7.65;;
18322;SDS011;9287;49.456;11.064;2023-05-23T01:12:18;8.43;;;7.72;;
18322;SDS011;9287;49.456;11.064;2023-05-23T01:14:55;8.73;;;7.82;;
18322;SDS011;9287;49.456;11.064;2023-05-23T01:17:36;9.45;;;7.85;;
18322;SDS011;9287;49.456;11.064;2023-05-23T01:20:12;10.23;;;8.90;;
18322;SDS011;9287;49.456;11.064;2023-05-23T01:22:54;8.60;;;7.78;;
18322;SDS011;9287;49.456;11.064;2023-05-23T01:26:00;9.23;;;8.32;;
18322;SDS011;9287;49.456;11.064;2023-05-23T01:28:39;9.10;;;8.23;;
18322;SDS011;9287;49.456;11.064;2023-05-23T01:31:11;9.02;;;8.13;;
18322;SDS011;9287;49.456;11.064;2023-05-23T01:33:42;10.73;;;8.30;;
18322;SDS011;9287;49.456;11.064;2023-05-23T01:36:11;9.10;;;8.20;;
18322;SDS011;9287;49.456;11.064;2023-05-23T01:38:41;8.95;;;8.25;;
18322;SDS011;9287;49.456;11.064;2023-05-23T01:41:09;8.77;;;8.07;;
18322;SDS011;9287;49.456;11.064;2023-05-23T01:43:38;8.52;;;7.72;;
18322;SDS011;9287;49.456;11.064;2023-05-23T01:46:07;9.52;;;8.63;;
18322;SDS011;9287;49.456;11.064;2023-05-23T01:48:35;8.70;;;7.95;;
18322;SDS011;9287;49.456;11.064;2023-05-23T01:51:06;9.77;;;8.88;;
18322;SDS011;9287;49.456;11.064;2023-05-23T01:53:34;10.25;;;9.00;;
18322;SDS011;9287;49.456;11.064;2023-05-23T01:56:03;9.10;;;8.27;;
18322;SDS011;9287;49.456;11.064;2023-05-23T01:58:31;8.77;;;8.05;;
18322;SDS011;9287;49.456;11.064;2023-05-23T02:01:00;8.93;;;8.23;;
18322;SDS011;9287;49.456;11.064;2023-05-23T02:03:29;9.95;;;9.05;;
18322;SDS011;9287;49.456;11.064;2023-05-23T02:05:57;9.95;;;8.98;;
18322;SDS011;9287;49.456;11.064;2023-05-23T02:08:24;10.05;;;9.05;;
18322;SDS011;9287;49.456;11.064;2023-05-23T02:10:52;10.32;;;9.23;;
18322;SDS011;9287;49.456;11.064;2023-05-23T02:13:21;9.50;;;8.60;;
18322;SDS011;9287;49.456;11.064;2023-05-23T02:15:49;9.43;;;8.40;;
18322;SDS011;9287;49.456;11.064;2023-05-23T02:18:18;9.60;;;8.70;;
18322;SDS011;9287;49.456;11.064;2023-05-23T02:20:46;9.32;;;8.52;;
18322;SDS011;9287;49.456;11.064;2023-05-23T02:23:14;9.98;;;9.05;;
18322;SDS011;9287;49.456;11.064;2023-05-23T02:25:42;8.82;;;8.07;;
18322;SDS011;9287;49.456;11.064;2023-05-23T02:28:09;10.13;;;9.23;;
18322;SDS011;9287;49.456;11.064;2023-05-23T02:30:38;9.80;;;8.90;;
18322;SDS011;9287;49.456;11.064;2023-05-23T02:33:06;9.30;;;8.50;;
18322;SDS011;9287;49.456;11.064;2023-05-23T02:35:35;10.10;;;9.07;;
18322;SDS011;9287;49.456;11.064;2023-05-23T02:38:04;9.70;;;8.80;;
18322;SDS011;9287;49.456;11.064;2023-05-23T02:40:32;10.48;;;9.20;;
18322;SDS011;9287;49.456;11.064;2023-05-23T02:43:02;9.77;;;8.77;;
18322;SDS011;9287;49.456;11.064;2023-05-23T02:45:30;11.02;;;9.73;;
18322;SDS011;9287;49.456;11.064;2023-05-23T02:47:58;9.98;;;9.02;;
18322;SDS011;9287;49.456;11.064;2023-05-23T02:50:26;10.30;;;9.48;;
18322;SDS011;9287;49.456;11.064;2023-05-23T02:52:55;9.70;;;8.85;;
18322;SDS011;9287;49.456;11.064;2023-05-23T02:55:26;9.43;;;8.63;;
18322;SDS011;9287;49.456;11.064;2023-05-23T02:57:54;9.68;;;8.73;;
18322;SDS011;9287;49.456;11.064;2023-05-23T03:00:22;11.10;;;9.95;;
18322;SDS011;9287;49.456;11.064;2023-05-23T03:02:54;10.20;;;9.23;;
18322;SDS011;9287;49.456;11.064;2023-05-23T03:05:22;10.47;;;9.37;;
18322;SDS011;9287;49.456;11.064;2023-05-23T03:07:50;10.57;;;9.47;;
18322;SDS011;9287;49.456;11.064;2023-05-23T03:10:21;10.75;;;9.75;;
18322;SDS011;9287;49.456;11.064;2023-05-23T03:12:50;10.88;;;9.75;;
18322;SDS011;9287;49.456;11.064;2023-05-23T03:15:17;10.35;;;9.40;;
18322;SDS011;9287;49.456;11.064;2023-05-23T03:17:45;11.10;;;9.27;;
18322;SDS011;9287;49.456;11.064;2023-05-23T03:20:13;11.05;;;9.25;;
18322;SDS011;9287;49.456;11.064;2023-05-23T03:22:41;10.95;;;9.95;;
18322;SDS011;9287;49.456;11.064;2023-05-23T03:25:11;10.35;;;9.45;;
18322;SDS011;9287;49.456;11.064;2023-05-23T03:27:40;11.23;;;10.23;;
18322;SDS011;9287;49.456;11.064;2023-05-23T03:30:08;10.75;;;9.70;;
18322;SDS011;9287;49.456;11.064;2023-05-23T03:32:36;10.25;;;9.35;;
18322;SDS011;9287;49.456;11.064;2023-05-23T03:35:05;10.75;;;9.65;;
18322;SDS011;9287;49.456;11.064;2023-05-23T03:37:34;10.90;;;9.55;;
18322;SDS011;9287;49.456;11.064;2023-05-23T03:40:02;10.95;;;9.88;;
18322;SDS011;9287;49.456;11.064;2023-05-23T03:42:32;11.23;;;10.13;;
18322;SDS011;9287;49.456;11.064;2023-05-23T03:45:03;11.97;;;10.17;;
18322;SDS011;9287;49.456;11.064;2023-05-23T03:47:32;11.18;;;9.77;;
18322;SDS011;9287;49.456;11.064;2023-05-23T03:50:00;10.55;;;9.65;;
18322;SDS011;9287;49.456;11.064;2023-05-23T03:52:28;11.15;;;10.15;;
18322;SDS011;9287;49.456;11.064;2023-05-23T03:54:57;11.38;;;10.38;;
18322;SDS011;9287;49.456;11.064;2023-05-23T03:57:26;11.43;;;10.43;;
18322;SDS011;9287;49.456;11.064;2023-05-23T03:59:54;11.80;;;10.70;;
18322;SDS011;9287;49.456;11.064;2023-05-23T04:02:23;11.55;;;10.35;;
18322;SDS011;9287;49.456;11.064;2023-05-23T04:04:51;10.95;;;9.82;;
18322;SDS011;9287;49.456;11.064;2023-05-23T04:07:22;11.45;;;10.35;;
18322;SDS011;9287;49.456;11.064;2023-05-23T04:09:51;11.27;;;10.27;;
18322;SDS011;9287;49.456;11.064;2023-05-23T04:12:19;10.70;;;9.68;;
18322;SDS011;9287;49.456;11.064;2023-05-23T04:14:47;10.40;;;9.40;;
18322;SDS011;9287;49.456;11.064;2023-05-23T04:17:15;11.90;;;10.60;;
18322;SDS011;9287;49.456;11.064;2023-05-23T04:19:45;11.20;;;10.00;;
18322;SDS011;9287;49.456;11.064;2023-05-23T04:22:15;11.20;;;10.13;;
18322;SDS011;9287;49.456;11.064;2023-05-23T04:24:43;11.43;;;10.25;;
18322;SDS011;9287;49.456;11.064;2023-05-23T04:27:13;10.32;;;9.40;;
18322;SDS011;9287;49.456;11.064;2023-05-23T04:29:41;10.02;;;9.02;;
18322;SDS011;9287;49.456;11.064;2023-05-23T04:32:12;10.65;;;9.55;;
18322;SDS011;9287;49.456;11.064;2023-05-23T04:34:41;10.52;;;9.52;;
18322;SDS011;9287;49.456;11.064;2023-05-23T04:37:11;10.40;;;9.30;;
18322;SDS011;9287;49.456;11.064;2023-05-23T04:39:39;10.63;;;9.52;;
18322;SDS011;9287;49.456;11.064;2023-05-23T04:42:07;10.48;;;9.40;;
18322;SDS011;9287;49.456;11.064;2023-05-23T04:44:35;10.10;;;9.10;;
18322;SDS011;9287;49.456;11.064;2023-05-23T04:47:03;10.57;;;9.45;;
18322;SDS011;9287;49.456;11.064;2023-05-23T04:49:34;10.40;;;9.43;;
18322;SDS011;9287;49.456;11.064;2023-05-23T04:52:02;10.43;;;9.30;;
18322;SDS011;9287;49.456;11.064;2023-05-23T04:54:32;10.68;;;9.73;;
18322;SDS011;9287;49.456;11.064;2023-05-23T04:56:59;12.10;;;10.68;;
18322;SDS011;9287;49.456;11.064;2023-05-23T04:59:28;11.50;;;9.40;;
18322;SDS011;9287;49.456;11.064;2023-05-23T05:01:58;10.57;;;9.57;;
18322;SDS011;9287;49.456;11.064;2023-05-23T05:04:27;10.45;;;9.45;;
18322;SDS011;9287;49.456;11.064;2023-05-23T05:06:55;11.15;;;10.00;;
18322;SDS011;9287;49.456;11.064;2023-05-23T05:09:23;10.63;;;9.57;;
18322;SDS011;9287;49.456;11.064;2023-05-23T05:11:54;10.27;;;9.35;;
18322;SDS011;9287;49.456;11.064;2023-05-23T05:14:22;11.48;;;9.32;;
18322;SDS011;9287;49.456;11.064;2023-05-23T05:16:50;10.93;;;9.80;;
18322;SDS011;9287;49.456;11.064;2023-05-23T05:19:20;10.95;;;9.85;;
18322;SDS011;9287;49.456;11.064;2023-05-23T05:21:49;10.35;;;9.45;;
18322;SDS011;9287;49.456;11.064;2023-05-23T05:24:17;11.00;;;9.68;;
18322;SDS011;9287;49.456;11.064;2023-05-23T05:26:46;10.30;;;9.05;;
18322;SDS011;9287;49.456;11.064;2023-05-23T05:29:16;11.27;;;9.75;;
18322;SDS011;9287;49.456;11.064;2023-05-23T05:31:44;10.18;;;9.18;;
18322;SDS011;9287;49.456;11.064;2023-05-23T05:34:12;11.18;;;10.13;;
18322;SDS011;9287;49.456;11.064;2023-05-23T05:36:40;9.60;;;8.80;;
18322;SDS011;9287;49.456;11.064;2023-05-23T05:39:13;10.52;;;9.43;;
18322;SDS011;9287;49.456;11.064;2023-05-23T05:41:42;10.55;;;9.55;;
18322;SDS011;9287;49.456;11.064;2023-05-23T05:44:10;10.65;;;9.65;;
18322;SDS011;9287;49.456;11.064;2023-05-23T05:46:39;10.35;;;9.38;;
18322;SDS011;9287;49.456;11.064;2023-05-23T05:49:07;11.20;;;9.90;;
18322;SDS011;9287;49.456;11.064;2023-05-23T05:51:37;10.70;;;9.60;;
18322;SDS011;9287;49.456;11.064;2023-05-23T05:54:05;10.45;;;9.43;;
18322;SDS011;9287;49.456;11.064;2023-05-23T05:56:34;11.20;;;8.73;;
18322;SDS011;9287;49.456;11.064;2023-05-23T05:59:01;10.80;;;9.52;;
18322;SDS011;9287;49.456;11.064;2023-05-23T06:01:29;10.05;;;9.05;;
18322;SDS011;9287;49.456;11.064;2023-05-23T06:03:59;9.50;;;8.57;;
18322;SDS011;9287;49.456;11.064;2023-05-23T06:06:27;10.57;;;9.38;;
18322;SDS011;9287;49.456;11.064;2023-05-23T06:08:55;10.60;;;9.63;;
18322;SDS011;9287;49.456;11.064;2023-05-23T06:11:25;10.82;;;9.75;;
18322;SDS011;9287;49.456;11.064;2023-05-23T06:13:55;10.18;;;9.27;;
18322;SDS011;9287;49.456;11.064;2023-05-23T06:16:27;10.90;;;9.80;;
18322;SDS011;9287;49.456;11.064;2023-05-23T06:18:58;11.55;;;10.02;;
18322;SDS011;9287;49.456;11.064;2023-05-23T06:21:26;10.73;;;9.65;;
18322;SDS011;9287;49.456;11.064;2023-05-23T06:23:56;10.60;;;9.50;;
18322;SDS011;9287;49.456;11.064;2023-05-23T06:26:24;10.25;;;9.27;;
18322;SDS011;9287;49.456;11.064;2023-05-23T06:28:52;10.63;;;9.55;;
18322;SDS011;9287;49.456;11.064;2023-05-23T06:31:20;10.55;;;9.45;;
18322;SDS011;9287;49.456;11.064;2023-05-23T06:33:48;10.50;;;9.45;;
18322;SDS011;9287;49.456;11.064;2023-05-23T06:36:19;10.70;;;9.70;;
18322;SDS011;9287;49.456;11.064;2023-05-23T06:38:48;10.50;;;9.52;;
18322;SDS011;9287;49.456;11.064;2023-05-23T06:41:17;9.45;;;8.55;;
18322;SDS011;9287;49.456;11.064;2023-05-23T06:43:48;14.20;;;8.65;;
18322;SDS011;9287;49.456;11.064;2023-05-23T06:46:15;12.43;;;9.38;;
18322;SDS011;9287;49.456;11.064;2023-05-23T06:48:46;13.07;;;9.10;;
18322;SDS011;9287;49.456;11.064;2023-05-23T06:51:33;9.70;;;8.90;;
18322;SDS011;9287;49.456;11.064;2023-05-23T06:54:01;11.88;;;9.38;;
18322;SDS011;9287;49.456;11.064;2023-05-23T06:56:29;13.15;;;10.05;;
18322;SDS011;9287;49.456;11.064;2023-05-23T06:58:57;14.98;;;9.55;;
18322;SDS011;9287;49.456;11.064;2023-05-23T07:01:25;10.88;;;9.77;;
18322;SDS011;9287;49.456;11.064;2023-05-23T07:03:53;11.23;;;10.05;;
18322;SDS011;9287;49.456;11.064;2023-05-23T07:06:22;11.10;;;10.02;;
18322;SDS011;9287;49.456;11.064;2023-05-23T07:08:55;10.13;;;8.75;;
18322;SDS011;9287;49.456;11.064;2023-05-23T07:11:23;10.13;;;9.13;;
18322;SDS011;9287;49.456;11.064;2023-05-23T07:13:53;10.65;;;8.95;;
18322;SDS011;9287;49.456;11.064;2023-05-23T07:16:22;12.02;;;9.73;;
18322;SDS011;9287;49.456;11.064;2023-05-23T07:18:52;10.55;;;9.45;;
18322;SDS011;9287;49.456;11.064;2023-05-23T07:21:21;10.15;;;9.15;;
18322;SDS011;9287;49.456;11.064;2023-05-23T07:23:49;8.95;;;8.10;;
18322;SDS011;9287;49.456;11.064;2023-05-23T07:26:18;10.77;;;8.90;;
18322;SDS011;9287;49.456;11.064;2023-05-23T07:28:46;11.05;;;9.35;;
18322;SDS011;9287;49.456;11.064;2023-05-23T07:31:14;10.15;;;8.45;;
18322;SDS011;9287;49.456;11.064;2023-05-23T07:33:42;9.80;;;8.82;;
18322;SDS011;9287;49.456;11.064;2023-05-23T07:36:10;9.05;;;8.15;;
18322;SDS011;9287;49.456;11.064;2023-05-23T07:38:38;9.50;;;8.45;;
18322;SDS011;9287;49.456;11.064;2023-05-23T07:41:05;12.30;;;8.90;;
18322;SDS011;9287;49.456;11.064;2023-05-23T07:43:39;9.60;;;8.70;;
18322;SDS011;9287;49.456;11.064;2023-05-23T07:46:07;9.68;;;8.68;;
18322;SDS011;9287;49.456;11.064;2023-05-23T07:48:35;9.73;;;8.85;;
18322;SDS011;9287;49.456;11.064;2023-05-23T07:51:03;9.70;;;8.80;;
18322;SDS011;9287;49.456;11.064;2023-05-23T07:53:31;10.23;;;9.32;;
18322;SDS011;9287;49.456;11.064;2023-05-23T07:56:00;9.90;;;9.00;;
18322;SDS011;9287;49.456;11.064;2023-05-23T07:58:29;9.90;;;8.95;;
18322;SDS011;9287;49.456;11.064;2023-05-23T08:00:58;9.63;;;8.77;;
18322;SDS011;9287;49.456;11.064;2023-05-23T08:03:25;9.82;;;8.65;;
18322;SDS011;9287;49.456;11.064;2023-05-23T08:05:53;10.07;;;9.00;;
18322;SDS011;9287;49.456;11.064;2023-05-23T08:08:21;10.63;;;9.57;;
18322;SDS011;9287;49.456;11.064;2023-05-23T08:10:49;11.35;;;10.15;;
18322;SDS011;9287;49.456;11.064;2023-05-23T08:13:16;12.70;;;9.27;;
18322;SDS011;9287;49.456;11.064;2023-05-23T08:15:44;9.18;;;8.27;;
18322;SDS011;9287;49.456;11.064;2023-05-23T08:18:13;11.38;;;7.65;;
18322;SDS011;9287;49.456;11.064;2023-05-23T08:20:42;8.93;;;7.68;;
18322;SDS011;9287;49.456;11.064;2023-05-23T08:23:10;10.40;;;8.27;;
18322;SDS011;9287;49.456;11.064;2023-05-23T08:25:39;8.93;;;7.85;;
18322;SDS011;9287;49.456;11.064;2023-05-23T08:28:07;9.18;;;8.38;;
18322;SDS011;9287;49.456;11.064;2023-05-23T08:30:34;9.30;;;8.23;;
18322;SDS011;9287;49.456;11.064;2023-05-23T08:33:02;8.43;;;7.60;;
18322;SDS011;9287;49.456;11.064;2023-05-23T08:35:33;8.63;;;7.85;;
18322;SDS011;9287;49.456;11.064;2023-05-23T08:38:04;9.25;;;7.43;;
18322;SDS011;9287;49.456;11.064;2023-05-23T08:40:35;7.60;;;6.97;;
18322;SDS011;9287;49.456;11.064;2023-05-23T08:43:03;7.25;;;6.45;;
18322;SDS011;9287;49.456;11.064;2023-05-23T08:45:31;7.10;;;6.50;;
18322;SDS011;9287;49.456;11.064;2023-05-23T08:48:00;7.28;;;6.68;;
18322;SDS011;9287;49.456;11.064;2023-05-23T08:50:29;6.93;;;6.32;;
18322;SDS011;9287;49.456;11.064;2023-05-23T08:52:58;7.97;;;6.80;;
18322;SDS011;9287;49.456;11.064;2023-05-23T08:55:27;8.88;;;6.45;;
18322;SDS011;9287;49.456;11.064;2023-05-23T08:57:56;6.53;;;5.70;;
18322;SDS011;9287;49.456;11.064;2023-05-23T09:00:26;7.00;;;6.30;;
18322;SDS011;9287;49.456;11.064;2023-05-23T09:02:54;6.93;;;6.15;;
18322;SDS011;9287;49.456;11.064;2023-05-23T09:05:25;10.23;;;7.30;;
18322;SDS011;9287;49.456;11.064;2023-05-23T09:07:53;7.15;;;6.20;;
18322;SDS011;9287;49.456;11.064;2023-05-23T09:10:23;9.35;;;6.53;;
18322;SDS011;9287;49.456;11.064;2023-05-23T09:12:55;7.47;;;6.78;;
18322;SDS011;9287;49.456;11.064;2023-05-23T09:15:23;9.07;;;6.60;;
18322;SDS011;9287;49.456;11.064;2023-05-23T09:17:52;6.90;;;6.30;;
18322;SDS011;9287;49.456;11.064;2023-05-23T09:20:25;6.25;;;5.75;;
18322;SDS011;9287;49.456;11.064;2023-05-23T09:22:54;6.53;;;5.93;;
18322;SDS011;9287;49.456;11.064;2023-05-23T09:25:24;7.93;;;7.00;;
18322;SDS011;9287;49.456;11.064;2023-05-23T09:27:52;7.55;;;6.85;;
18322;SDS011;9287;49.456;11.064;2023-05-23T09:30:21;6.95;;;6.35;;
18322;SDS011;9287;49.456;11.064;2023-05-23T09:32:56;7.07;;;6.35;;
18322;SDS011;9287;49.456;11.064;2023-05-23T09:35:30;6.65;;;5.75;;
18322;SDS011;9287;49.456;11.064;2023-05-23T09:37:58;6.90;;;6.20;;
18322;SDS011;9287;49.456;11.064;2023-05-23T09:40:30;7.47;;;6.55;;
18322;SDS011;9287;49.456;11.064;2023-05-23T09:43:03;6.82;;;6.18;;
18322;SDS011;9287;49.456;11.064;2023-05-23T09:45:32;6.97;;;6.28;;
18322;SDS011;9287;49.456;11.064;2023-05-23T09:48:01;9.25;;;6.85;;
18322;SDS011;9287;49.456;11.064;2023-05-23T09:50:29;7.80;;;7.10;;
18322;SDS011;9287;49.456;11.064;2023-05-23T09:52:59;9.88;;;7.40;;
18322;SDS011;9287;49.456;11.064;2023-05-23T09:55:27;8.13;;;7.45;;
18322;SDS011;9287;49.456;11.064;2023-05-23T09:57:57;7.88;;;7.07;;
18322;SDS011;9287;49.456;11.064;2023-05-23T10:00:26;6.80;;;6.20;;
18322;SDS011;9287;49.456;11.064;2023-05-23T10:02:57;7.78;;;6.65;;
18322;SDS011;9287;49.456;11.064;2023-05-23T10:05:40;6.43;;;5.93;;
18322;SDS011;9287;49.456;11.064;2023-05-23T10:08:13;6.63;;;5.93;;
18322;SDS011;9287;49.456;11.064;2023-05-23T10:14:08;7.57;;;6.15;;
18322;SDS011;9287;49.456;11.064;2023-05-23T10:16:37;5.75;;;5.28;;
18322;SDS011;9287;49.456;11.064;2023-05-23T10:19:12;6.13;;;5.63;;
18322;SDS011;9287;49.456;11.064;2023-05-23T10:21:48;6.05;;;4.90;;
18322;SDS011;9287;49.456;11.064;2023-05-23T10:24:17;5.35;;;4.30;;
18322;SDS011;9287;49.456;11.064;2023-05-23T10:26:46;5.65;;;4.97;;
18322;SDS011;9287;49.456;11.064;2023-05-23T10:29:16;4.93;;;4.55;;
18322;SDS011;9287;49.456;11.064;2023-05-23T10:31:44;5.22;;;4.68;;
18322;SDS011;9287;49.456;11.064;2023-05-23T10:34:16;6.05;;;5.00;;
18322;SDS011;9287;49.456;11.064;2023-05-23T10:36:54;6.47;;;4.80;;
18322;SDS011;9287;49.456;11.064;2023-05-23T10:39:31;5.32;;;4.82;;
18322;SDS011;9287;49.456;11.064;2023-05-23T10:42:07;4.93;;;4.53;;
18322;SDS011;9287;49.456;11.064;2023-05-23T10:44:41;6.97;;;4.10;;
18322;SDS011;9287;49.456;11.064;2023-05-23T10:47:10;5.68;;;4.20;;
18322;SDS011;9287;49.456;11.064;2023-05-23T10:49:39;4.45;;;3.55;;
18322;SDS011;9287;49.456;11.064;2023-05-23T10:52:08;3.90;;;3.60;;
18322;SDS011;9287;49.456;11.064;2023-05-23T10:54:41;5.13;;;3.50;;
18322;SDS011;9287;49.456;11.064;2023-05-23T10:57:10;3.88;;;3.22;;
18322;SDS011;9287;49.456;11.064;2023-05-23T10:59:38;3.78;;;3.35;;
18322;SDS011;9287;49.456;11.064;2023-05-23T11:02:11;3.70;;;3.42;;
18322;SDS011;9287;49.456;11.064;2023-05-23T11:04:41;4.00;;;3.70;;
18322;SDS011;9287;49.456;11.064;2023-05-23T11:10:02;4.68;;;3.30;;
18322;SDS011;9287;49.456;11.064;2023-05-23T11:12:37;3.08;;;2.88;;
18322;SDS011;9287;49.456;11.064;2023-05-23T11:15:20;3.47;;;3.17;;
18322;SDS011;9287;49.456;11.064;2023-05-23T11:17:49;3.10;;;2.90;;
18322;SDS011;9287;49.456;11.064;2023-05-23T11:20:20;2.97;;;2.70;;
18322;SDS011;9287;49.456;11.064;2023-05-23T11:22:52;2.53;;;2.42;;
18322;SDS011;9287;49.456;11.064;2023-05-23T11:25:21;20.70;;;3.17;;
18322;SDS011;9287;49.456;11.064;2023-05-23T11:28:07;3.63;;;2.47;;
18322;SDS011;9287;49.456;11.064;2023-05-23T11:30:37;2.42;;;2.13;;
18322;SDS011;9287;49.456;11.064;2023-05-23T11:33:06;2.50;;;2.40;;
18322;SDS011;9287;49.456;11.064;2023-05-23T11:35:39;2.55;;;2.28;;
18322;SDS011;9287;49.456;11.064;2023-05-23T11:38:07;3.20;;;2.47;;
18322;SDS011;9287;49.456;11.064;2023-05-23T11:40:36;2.78;;;2.53;;
18322;SDS011;9287;49.456;11.064;2023-05-23T11:43:06;2.47;;;2.28;;
18322;SDS011;9287;49.456;11.064;2023-05-23T11:45:37;2.50;;;2.20;;
18322;SDS011;9287;49.456;11.064;2023-05-23T11:48:06;2.05;;;1.88;;
18322;SDS011;9287;49.456;11.064;2023-05-23T11:50:42;3.53;;;2.08;;
18322;SDS011;9287;49.456;11.064;2023-05-23T11:53:11;2.92;;;2.33;;
18322;SDS011;9287;49.456;11.064;2023-05-23T11:55:47;4.65;;;2.58;;
18322;SDS011;9287;49.456;11.064;2023-05-23T11:58:16;3.30;;;1.90;;
18322;SDS011;9287;49.456;11.064;2023-05-23T12:00:45;1.90;;;1.75;;
18322;SDS011;9287;49.456;11.064;2023-05-23T12:03:13;1.77;;;1.67;;
18322;SDS011;9287;49.456;11.064;2023-05-23T12:05:42;1.58;;;1.48;;
18322;SDS011;9287;49.456;11.064;2023-05-23T12:08:11;1.63;;;1.52;;
18322;SDS011;9287;49.456;11.064;2023-05-23T12:10:50;1.30;;;1.20;;
18322;SDS011;9287;49.456;11.064;2023-05-23T12:13:20;1.67;;;1.58;;
18322;SDS011;9287;49.456;11.064;2023-05-23T12:15:53;1.83;;;1.40;;
18322;SDS011;9287;49.456;11.064;2023-05-23T12:18:22;1.92;;;1.40;;
18322;SDS011;9287;49.456;11.064;2023-05-23T12:20:50;1.75;;;1.20;;
18322;SDS011;9287;49.456;11.064;2023-05-23T12:23:19;2.65;;;1.30;;
18322;SDS011;9287;49.456;11.064;2023-05-23T12:25:51;1.30;;;1.20;;
18322;SDS011;9287;49.456;11.064;2023-05-23T12:28:20;1.58;;;1.30;;
18322;SDS011;9287;49.456;11.064;2023-05-23T12:31:08;1.40;;;1.30;;
18322;SDS011;9287;49.456;11.064;2023-05-23T12:33:37;1.33;;;1.13;;
18322;SDS011;9287;49.456;11.064;2023-05-23T12:36:06;1.55;;;1.45;;
18322;SDS011;9287;49.456;11.064;2023-05-23T12:38:37;3.20;;;1.20;;
18322;SDS011;9287;49.456;11.064;2023-05-23T12:41:06;1.40;;;1.30;;
18322;SDS011;9287;49.456;11.064;2023-05-23T12:43:36;1.77;;;1.17;;
18322;SDS011;9287;49.456;11.064;2023-05-23T12:46:08;1.38;;;1.25;;
18322;SDS011;9287;49.456;11.064;2023-05-23T12:48:36;1.67;;;1.30;;
18322;SDS011;9287;49.456;11.064;2023-05-23T12:51:04;1.50;;;1.40;;
18322;SDS011;9287;49.456;11.064;2023-05-23T12:53:32;2.47;;;1.30;;
18322;SDS011;9287;49.456;11.064;2023-05-23T12:56:00;2.45;;;1.30;;
18322;SDS011;9287;49.456;11.064;2023-05-23T12:58:29;2.58;;;1.48;;
18322;SDS011;9287;49.456;11.064;2023-05-23T13:00:57;1.50;;;1.23;;
18322;SDS011;9287;49.456;11.064;2023-05-23T13:03:26;1.92;;;1.35;;
18322;SDS011;9287;49.456;11.064;2023-05-23T13:05:57;6.97;;;1.60;;
18322;SDS011;9287;49.456;11.064;2023-05-23T13:08:26;1.50;;;1.40;;
18322;SDS011;9287;49.456;11.064;2023-05-23T13:10:54;5.03;;;1.42;;
18322;SDS011;9287;49.456;11.064;2023-05-23T13:13:22;2.33;;;1.45;;
18322;SDS011;9287;49.456;11.064;2023-05-23T13:15:50;3.08;;;1.70;;
18322;SDS011;9287;49.456;11.064;2023-05-23T13:18:19;2.05;;;1.10;;
18322;SDS011;9287;49.456;11.064;2023-05-23T13:20:48;2.20;;;1.30;;
18322;SDS011;9287;49.456;11.064;2023-05-23T13:23:19;4.63;;;1.20;;
18322;SDS011;9287;49.456;11.064;2023-05-23T13:25:47;3.72;;;1.50;;
18322;SDS011;9287;49.456;11.064;2023-05-23T13:28:16;2.97;;;1.33;;
18322;SDS011;9287;49.456;11.064;2023-05-23T13:30:44;1.67;;;1.38;;
18322;SDS011;9287;49.456;11.064;2023-05-23T13:33:13;4.70;;;1.60;;
18322;SDS011;9287;49.456;11.064;2023-05-23T13:35:41;2.45;;;1.42;;
18322;SDS011;9287;49.456;11.064;2023-05-23T13:38:11;2.00;;;1.40;;
18322;SDS011;9287;49.456;11.064;2023-05-23T13:40:39;1.40;;;1.30;;
18322;SDS011;9287;49.456;11.064;2023-05-23T13:43:07;2.80;;;1.30;;
18322;SDS011;9287;49.456;11.064;2023-05-23T13:45:35;1.75;;;1.55;;
18322;SDS011;9287;49.456;11.064;2023-05-23T13:48:03;1.90;;;1.50;;
18322;SDS011;9287;49.456;11.064;2023-05-23T13:50:31;1.23;;;1.13;;
18322;SDS011;9287;49.456;11.064;2023-05-23T13:52:59;2.35;;;1.27;;
18322;SDS011;9287;49.456;11.064;2023-05-23T13:55:28;2.90;;;1.20;;
18322;SDS011;9287;49.456;11.064;2023-05-23T13:57:57;2.40;;;1.40;;
18322;SDS011;9287;49.456;11.064;2023-05-23T14:00:25;1.30;;;1.20;;
18322;SDS011;9287;49.456;11.064;2023-05-23T14:02:53;1.33;;;1.23;;
18322;SDS011;9287;49.456;11.064;2023-05-23T14:05:22;1.70;;;1.30;;
18322;SDS011;9287;49.456;11.064;2023-05-23T14:07:49;3.10;;;1.48;;
18322;SDS011;9287;49.456;11.064;2023-05-23T14:10:21;1.40;;;1.30;;
18322;SDS011;9287;49.456;11.064;2023-05-23T14:12:51;1.95;;;1.10;;
18322;SDS011;9287;49.456;11.064;2023-05-23T14:15:20;1.95;;;1.25;;
18322;SDS011;9287;49.456;11.064;2023-05-23T14:17:49;2.08;;;1.30;;
18322;SDS011;9287;49.456;11.064;2023-05-23T14:20:20;1.42;;;1.33;;
18322;SDS011;9287;49.456;11.064;2023-05-23T14:22:49;1.27;;;1.17;;
18322;SDS011;9287;49.456;11.064;2023-05-23T14:25:18;1.63;;;1.35;;
18322;SDS011;9287;49.456;11.064;2023-05-23T14:27:46;1.48;;;1.27;;
18322;SDS011;9287;49.456;11.064;2023-05-23T14:30:23;2.58;;;1.40;;
18322;SDS011;9287;49.456;11.064;2023-05-23T14:32:51;1.58;;;1.30;;
18322;SDS011;9287;49.456;11.064;2023-05-23T14:35:19;1.45;;;1.35;;
18322;SDS011;9287;49.456;11.064;2023-05-23T14:37:48;1.65;;;1.55;;
18322;SDS011;9287;49.456;11.064;2023-05-23T14:40:20;2.75;;;1.60;;
18322;SDS011;9287;49.456;11.064;2023-05-23T14:42:50;2.22;;;1.15;;
18322;SDS011;9287;49.456;11.064;2023-05-23T14:45:20;1.25;;;1.15;;
18322;SDS011;9287;49.456;11.064;2023-05-23T14:47:49;1.40;;;1.23;;
18322;SDS011;9287;49.456;11.064;2023-05-23T14:50:20;1.42;;;1.33;;
18322;SDS011;9287;49.456;11.064;2023-05-23T14:52:48;1.20;;;1.10;;
18322;SDS011;9287;49.456;11.064;2023-05-23T14:55:18;1.38;;;1.10;;
18322;SDS011;9287;49.456;11.064;2023-05-23T14:57:47;1.25;;;1.10;;
18322;SDS011;9287;49.456;11.064;2023-05-23T15:00:15;1.33;;;1.17;;
18322;SDS011;9287;49.456;11.064;2023-05-23T15:02:44;1.25;;;1.15;;